Nearby METAR Reports

 

KRSP - Nsf Thurmont, Maryland, USA
Distance from station: SE 8mi, 13km
Updated: Thu, 29-Sep-2022 5:54pm EDT
NOT Current
Partly cloudy
Partly cloudy
 Wind from varies
Wind: varies 3 mph , 6 km/h
Temperature: 55°F , 13°C
Barometer: 30.35 inHg , 1027.8 hPa
Clouds: Partly cloudy
Cloud details: Partly cloudy 2900 ft
2022/09/29 21:54 KRSP 292154Z AUTO VRB03KT SCT029 13/ A3035 RMK AO2 SLP285 T0133 $
KHGR - Hagerstown, Maryland, USA
Distance from station: WSW 10mi, 16km
Updated: Thu, 06-Oct-2022 12:53pm EDT
Clear
Clear
 Wind from varies
Wind: varies 3 mph , 6 km/h
Temperature: 70°F , 21°C
Dew Point: 50°F , 10°C
Humidity: 50%
Barometer: 30.03 inHg , 1016.9 hPa
Clouds: Clear
Visibility: 10 miles , 16 km
2022/10/06 16:53 KHGR 061653Z VRB03KT 10SM CLR 21/10 A3003 RMK AO2 SLP179 T02060100 $
KFDK - Frederick, Maryland, USA
Distance from station: SSE 25mi, 40km
Updated: Thu, 06-Oct-2022 1:47pm EDT
Clear
Clear
 Wind from W
Wind: W 6 mph , 9 km/h
Temperature: 73°F , 23°C
Dew Point: 54°F , 12°C
Humidity: 50%
Barometer: 30.01 inHg , 1016.3 hPa
Clouds: Clear
Visibility: 10 miles , 16 km
2022/10/06 17:47 KFDK 061747Z 27005KT 10SM CLR 23/12 A3001
 
KDMW - Carroll Cnty, Maryland, USA
Distance from station: ESE 31mi, 50km
Updated: Thu, 06-Oct-2022 1:35pm EDT
Clear
Clear
 Wind from W
Wind: W 5 mph , 7 km/h
Temperature: 73°F , 23°C
Dew Point: 52°F , 11°C
Humidity: 47%
Barometer: 30.01 inHg , 1016.3 hPa
Clouds: Clear
Visibility: 10 miles , 16 km
2022/10/06 17:35 KDMW 061735Z AUTO 27004KT 10SM CLR 23/11 A3001 RMK AO2
KMRB - Martinsburg, West Virginia, USA
Distance from station: SW 33mi, 53km
Updated: Thu, 06-Oct-2022 12:53pm EDT
Clear
Clear
 Wind from calm
Wind: Calm
Temperature: 72°F , 22°C
Dew Point: 54°F , 12°C
Humidity: 53%
Barometer: 30.03 inHg , 1016.9 hPa
Clouds: Clear
Visibility: 10 miles , 16 km
2022/10/06 16:53 KMRB 061653Z 00000KT 10SM CLR 22/12 A3003 RMK AO2 SLP166 T02220117
KTHV - York, Pennsylvania, USA
Distance from station: ENE 37mi, 60km
Updated: Thu, 06-Oct-2022 12:53pm EDT
Clear
Clear
 Wind from WSW
Wind: WSW 7 mph , 11 km/h
Temperature: 73°F , 23°C
Dew Point: 52°F , 11°C
Humidity: 47%
Barometer: 30.01 inHg , 1016.3 hPa
Clouds: Clear
Visibility: 10 miles , 16 km
2022/10/06 16:53 KTHV 061653Z AUTO 24006KT 10SM CLR 23/11 A3001 RMK AO2 SLP164 T02280111
 
KGAI - Gaithersburg, Maryland, USA
Distance from station: SSE 45mi, 72km
Updated: Thu, 06-Oct-2022 12:56pm EDT
Clear
Clear
 Wind from varies
Wind: varies 7 mph , 11 km/h
Temperature: 72°F , 22°C
Dew Point: 52°F , 11°C
Humidity: 50%
Barometer: 30.04 inHg , 1017.3 hPa
Clouds: Clear
2022/10/06 16:56 KGAI 061656Z AUTO VRB06KT CLR 22/11 A3004 RMK AO2 SLP184 T02170111 PWINO $
KJYO - Leesburg/Godfrey, Virginia, USA
Distance from station: S 47mi, 75km
Updated: Thu, 06-Oct-2022 1:35pm EDT
Clear
Clear
 Wind from WNW
Wind: WNW 6 mph , 9 km/h
Temperature: 73°F , 23°C
Dew Point: 55°F , 13°C
Humidity: 53%
Barometer: 30.04 inHg , 1017.3 hPa
Clouds: Clear
Visibility: 10 miles , 16 km
2022/10/06 17:35 KJYO 061735Z AUTO 30005KT 10SM CLR 23/13 A3004 RMK AO2
KCXY - Harrisburg, Pennsylvania, USA
Distance from station: NE 50mi, 80km
Updated: Thu, 06-Oct-2022 12:56pm EDT

 Wind from WNW
Wind: WNW 8 mph , 13 km/h
Temperature: 75°F , 24°C
Dew Point: 52°F , 11°C
Humidity: 44%
Barometer: 30.01 inHg , 1016.3 hPa
Visibility: 10 miles , 16 km
2022/10/06 16:56 KCXY 061656Z AUTO 30007KT 270V340 10SM 24/11 A3001 RMK AO2 SLP162 T02390111 $
 
KMDT - Middletown, Pennsylvania, USA
Distance from station: NE 52mi, 84km
Updated: Thu, 06-Oct-2022 12:56pm EDT
Mostly cloudy
Mostly cloudy
 Wind from WNW
Wind: WNW 7 mph , 11 km/h
Temperature: 68°F , 20°C
Dew Point: 54°F , 12°C
Humidity: 60%
Barometer: 30.00 inHg , 1015.9 hPa
Clouds: Mostly cloudy
Visibility: 10 miles , 16 km
Cloud details: Mostly cloudy 20000 ft
2022/10/06 16:56 KMDT 061656Z 29006KT 10SM BKN200 20/12 A3000 RMK AO2 SLP159 T02000122
KOKV - Winchester Rgnl, Virginia, USA
Distance from station: SW 53mi, 85km
Updated: Thu, 06-Oct-2022 1:35pm EDT
Clear
Clear
 Wind from W
Wind: W 5 mph , 7 km/h
Temperature: 72°F , 22°C
Dew Point: 50°F , 10°C
Humidity: 47%
Barometer: 30.02 inHg , 1016.6 hPa
Clouds: Clear
Visibility: 10 miles , 16 km
2022/10/06 17:35 KOKV 061735Z AUTO 27004KT 10SM CLR 22/10 A3002 RMK AO2
KAOO - Altoona, Pennsylvania, USA
Distance from station: NW 56mi, 90km
Updated: Thu, 06-Oct-2022 12:53pm EDT
Clear
Clear
 Wind from calm
Wind: Calm
Temperature: 72°F , 22°C
Dew Point: 48°F , 9°C
Humidity: 44%
Barometer: 30.05 inHg , 1017.6 hPa
Clouds: Clear
Visibility: 10 miles , 16 km
2022/10/06 16:53 KAOO 061653Z AUTO 00000KT 10SM CLR 22/09 A3005 RMK AO2 SLP171 T02220094
 
KIAD - Wash Dc/Dulles, Virginia, USA
Distance from station: S 56mi, 90km
Updated: Thu, 06-Oct-2022 12:52pm EDT
Few Clouds
Few Clouds
 Wind from NNW
Wind: NNW 7 mph , 11 km/h
Temperature: 75°F , 24°C
Dew Point: 50°F , 10°C
Humidity: 41%
Barometer: 30.03 inHg , 1016.9 hPa
Clouds: Few Clouds
Visibility: 10 miles , 16 km
Cloud details: Few Clouds 25000 ft
2022/10/06 16:52 KIAD 061652Z 34006KT 10SM FEW250 24/10 A3003 RMK AO2 SLP166 T02390100
KHMZ - Bedford, Pennsylvania, USA
Distance from station: WNW 56mi, 91km
Updated: Thu, 06-Oct-2022 1:35pm EDT
Clear
Clear
 Wind from calm
Wind: Calm
Temperature: 72°F , 22°C
Dew Point: 48°F , 9°C
Humidity: 44%
Barometer: 30.02 inHg , 1016.6 hPa
Clouds: Clear
Visibility: 10 miles , 16 km
2022/10/06 17:35 KHMZ 061735Z AUTO 00000KT 10SM CLR 22/09 A3002 RMK AO2 T02200092
KBWI - Balto/Wash Intl, Maryland, USA
Distance from station: SE 61mi, 98km
Updated: Thu, 06-Oct-2022 12:54pm EDT
Partly cloudy
Partly cloudy
 Wind from calm
Wind: Calm
Temperature: 73°F , 23°C
Dew Point: 50°F , 10°C
Humidity: 44%
Barometer: 30.00 inHg , 1015.9 hPa
Clouds: Partly cloudy
Visibility: 10 miles , 16 km
Cloud details: Few Clouds 12000 ft
Partly cloudy 25000 ft
2022/10/06 16:54 KBWI 061654Z 00000KT 10SM FEW120 SCT250 23/10 A3000 RMK AO2 SLP160 T02330100
 
KFME - Fort Meade, Maryland, USA
Distance from station: SE 62mi, 100km
Updated: Thu, 06-Oct-2022 1:39pm EDT
Clear
Clear
 Wind from SW
Wind: SW 3 mph , 6 km/h
Temperature: 72°F , 22°C
Dew Point: 48°F , 9°C
Humidity: 44%
Barometer: 30.03 inHg , 1016.9 hPa
Clouds: Clear
Visibility: 10 miles , 16 km
2022/10/06 17:39 KFME 061739Z AUTO 23003KT 10SM CLR 22/09 A3003 RMK AO1
KCGS - College Park, Maryland, USA
Distance from station: SE 62mi, 101km
Updated: Thu, 06-Oct-2022 1:40pm EDT

 Wind from NW
Wind: NW 6 mph , 9 km/h
Temperature: 73°F , 23°C
Dew Point: 50°F , 10°C
Humidity: 44%
Barometer: 30.01 inHg , 1016.3 hPa
Visibility: 10 miles , 16 km
2022/10/06 17:40 KCGS 061740Z AUTO 32005KT 10SM 23/10 A3001 RMK AO2 T02320098
KCBE - Cumberland Reg, Maryland, USA
Distance from station: W 65mi, 105km
Updated: Thu, 06-Oct-2022 1:35pm EDT
Clear
Clear
 Wind from SSW
Wind: SSW 6 mph , 9 km/h
Temperature: 72°F , 22°C
Dew Point: 54°F , 12°C
Humidity: 53%
Barometer: 30.07 inHg , 1018.3 hPa
Clouds: Clear
Visibility: 10 miles , 16 km
2022/10/06 17:35 KCBE 061735Z AUTO 20005KT 10SM CLR 22/12 A3007 RMK AO2 T02230121
 
KRVL - Reedsville, Pennsylvania, USA
Distance from station: N 65mi, 105km
Updated: Thu, 06-Oct-2022 1:35pm EDT
Haze, Clear
Haze, Clear
 Wind from calm
Wind: Calm
Temperature: 72°F , 22°C
Dew Point: 50°F , 10°C
Humidity: 47%
Barometer: 30.01 inHg , 1016.3 hPa
Summary: Haze
Clouds: Clear
Visibility: 6 miles , 10 km
2022/10/06 17:35 KRVL 061735Z AUTO 00000KT 6SM HZ CLR 22/10 A3001 RMK AO2
KMTN - Baltimore/Martin, Maryland, USA
Distance from station: ESE 67mi, 108km
Updated: Thu, 06-Oct-2022 12:55pm EDT
Clear
Clear
 Wind from ESE
Wind: ESE 5 mph , 7 km/h
Temperature: 70°F , 21°C
Dew Point: 55°F , 13°C
Humidity: 60%
Barometer: 30.02 inHg , 1016.6 hPa
Clouds: Clear
Visibility: 10 miles , 16 km
2022/10/06 16:55 KMTN 061655Z 12004KT 10SM CLR 21/13 A3002